Time;durP1;ratioP1;P1;durP2;ratioP2;P2;SDS_P1;SDS_P2;PMS_P1;PMS_P2;Temp;Humidity;BMP_temperature;BMP_pressure;BME280_temperature;BME280_humidity;BME280_pressure;Samples;Min_cycle;Max_cycle;Signal;HPM_P1;HPM_P2
2022/11/24 00:01:29;;;;;;;28.70;10.90;;;5.20;99.90;;;;;;5033550;28;20025;-70
2022/11/24 00:04:00;;;;;;;27.70;12.23;;;5.20;99.90;;;;;;5033511;28;20370;-70
2022/11/24 00:06:26;;;;;;;26.40;11.57;;;5.20;99.90;;;;;;5033885;28;20473;-70
2022/11/24 00:08:52;;;;;;;37.22;12.45;;;5.30;99.90;;;;;;5013376;28;20062;-70
2022/11/24 00:11:26;;;;;;;25.17;11.88;;;5.30;99.90;;;;;;5013516;28;20097;-70
2022/11/24 00:13:52;;;;;;;24.98;11.52;;;5.30;99.90;;;;;;5014367;28;20109;-70
2022/11/24 00:16:19;;;;;;;31.38;12.23;;;5.30;99.90;;;;;;5013721;28;20026;-70
2022/11/24 00:18:46;;;;;;;36.95;12.00;;;5.30;99.90;;;;;;5026221;28;20057;-70
2022/11/24 00:21:13;;;;;;;27.23;11.38;;;5.30;99.90;;;;;;5033857;28;20033;-70
2022/11/24 00:23:39;;;;;;;19.50;11.52;;;5.30;99.90;;;;;;5027017;28;20507;-70
2022/11/24 00:26:13;;;;;;;29.60;11.52;;;5.30;99.90;;;;;;5018374;28;20088;-71
2022/11/24 00:28:39;;;;;;;29.45;12.55;;;5.40;99.90;;;;;;5033820;28;20026;-71
2022/11/24 00:31:20;;;;;;;32.63;11.82;;;5.40;99.90;;;;;;5033358;28;20065;-70
2022/11/24 00:33:47;;;;;;;29.35;12.68;;;5.40;99.90;;;;;;5033729;28;20108;-70
2022/11/24 00:36:13;;;;;;;30.67;12.95;;;5.40;99.90;;;;;;5033338;28;20503;-70
2022/11/24 00:38:39;;;;;;;25.75;12.40;;;5.40;99.90;;;;;;5033048;28;20032;-69
2022/11/24 00:41:05;;;;;;;34.13;12.25;;;5.40;99.90;;;;;;5033533;28;20041;-70
2022/11/24 00:43:31;;;;;;;29.42;12.48;;;5.40;99.90;;;;;;5033369;28;20109;-70
2022/11/24 00:45:56;;;;;;;36.85;12.68;;;5.40;99.90;;;;;;5009518;28;20504;-70
2022/11/24 00:48:22;;;;;;;21.92;12.10;;;5.50;99.90;;;;;;4997688;28;20022;-69
2022/11/24 00:51:06;;;;;;;34.83;13.27;;;5.40;99.90;;;;;;5008999;28;20104;-70
2022/11/24 00:53:31;;;;;;;;;;;5.50;99.90;;;;;;5018020;28;20034;-70
2022/11/24 00:55:57;;;;;;;30.75;12.38;;;5.50;99.90;;;;;;5010475;28;20426;-70
2022/11/24 00:58:23;;;;;;;28.33;13.77;;;5.50;99.90;;;;;;4997356;28;20054;-70
2022/11/24 01:00:50;;;;;;;33.10;14.98;;;5.40;99.90;;;;;;4997392;28;20036;-70
2022/11/24 01:03:16;;;;;;;42.08;14.18;;;5.50;99.90;;;;;;5015629;28;20383;-70
2022/11/24 01:05:42;;;;;;;33.95;14.52;;;5.50;99.90;;;;;;5017462;28;20445;-70
2022/11/24 01:08:08;;;;;;;37.47;14.57;;;5.40;99.90;;;;;;5016589;28;20026;-70
2022/11/24 01:10:33;;;;;;;22.77;13.70;;;5.50;99.90;;;;;;5016942;28;20121;-70
2022/11/24 01:12:59;;;;;;;22.80;14.45;;;5.50;99.90;;;;;;4999545;28;20030;-70
2022/11/24 01:15:25;;;;;;;35.70;15.23;;;5.50;99.90;;;;;;5017608;28;20101;-70
2022/11/24 01:17:51;;;;;;;23.85;14.25;;;5.50;99.90;;;;;;5016843;28;20095;-70
2022/11/24 01:20:17;;;;;;;43.13;15.98;;;5.50;99.90;;;;;;5016770;28;20152;-70
2022/11/24 01:22:42;;;;;;;36.50;14.73;;;5.50;99.90;;;;;;5016559;28;20030;-70
2022/11/24 01:25:10;;;;;;;35.60;16.65;;;5.50;99.90;;;;;;5017026;28;20084;-70
2022/11/24 01:27:36;;;;;;;40.22;16.25;;;5.50;99.90;;;;;;5030949;28;20024;-70
2022/11/24 01:30:02;;;;;;;32.10;15.68;;;5.50;99.90;;;;;;5036524;28;20025;-70
2022/11/24 01:32:28;;;;;;;33.65;16.20;;;5.50;99.90;;;;;;5018519;28;20063;-70
2022/11/24 01:34:53;;;;;;;31.25;15.40;;;5.60;99.90;;;;;;5036603;28;20041;-70
2022/11/24 01:37:19;;;;;;;40.85;17.73;;;5.60;99.90;;;;;;5036122;28;20120;-70
2022/11/24 01:39:45;;;;;;;38.20;15.95;;;5.60;99.90;;;;;;5036767;28;20044;-71
2022/11/24 01:42:10;;;;;;;36.83;15.90;;;5.60;99.90;;;;;;5018208;28;20025;-70
2022/11/24 01:44:36;;;;;;;28.45;14.52;;;5.60;99.90;;;;;;5036203;28;20018;-70
2022/11/24 01:47:30;;;;;;;37.53;17.33;;;5.60;99.90;;;;;;5036576;28;20053;-70
2022/11/24 01:49:58;;;;;;;27.67;15.32;;;5.60;99.90;;;;;;5036629;28;20021;-70
2022/11/24 01:52:37;;;;;;;28.98;16.67;;;5.60;99.90;;;;;;5035436;28;20041;-70
2022/11/24 01:55:07;;;;;;;34.33;17.65;;;5.70;99.90;;;;;;5020487;28;20477;-70
2022/11/24 01:57:39;;;;;;;43.03;16.60;;;5.70;99.90;;;;;;5015607;28;20085;-70
2022/11/24 02:00:08;;;;;;;31.15;15.98;;;5.70;99.90;;;;;;5016147;28;20044;-68
2022/11/24 02:02:34;;;;;;;38.55;18.30;;;5.70;99.90;;;;;;5015051;28;20037;-70
2022/11/24 02:05:05;;;;;;;32.88;16.95;;;5.70;99.90;;;;;;5004980;28;20026;-70
2022/11/24 02:07:31;;;;;;;50.45;18.20;;;5.70;99.90;;;;;;4996624;28;20031;-70
2022/11/24 02:10:01;;;;;;;41.03;18.05;;;5.70;99.90;;;;;;5009730;28;20068;-70
2022/11/24 02:12:27;;;;;;;34.67;19.33;;;5.70;99.90;;;;;;5016995;28;20038;-70
2022/11/24 02:14:54;;;;;;;29.08;17.75;;;5.80;99.90;;;;;;5009718;28;20026;-70
2022/11/24 02:17:21;;;;;;;36.90;18.27;;;5.80;99.90;;;;;;4998320;28;20030;-70
2022/11/24 02:20:04;;;;;;;42.10;18.92;;;5.80;99.90;;;;;;5001619;28;20025;-70
2022/11/24 02:22:29;;;;;;;38.60;18.23;;;5.80;99.90;;;;;;5007424;28;20058;-69
2022/11/24 02:25:10;;;;;;;37.97;20.52;;;5.80;99.90;;;;;;5021120;28;20109;-70
2022/11/24 02:27:36;;;;;;;34.40;17.83;;;5.80;99.90;;;;;;5035514;28;20044;-70
2022/11/24 02:30:02;;;;;;;36.80;17.52;;;5.80;99.90;;;;;;5035534;28;20025;-70
2022/11/24 02:32:30;;;;;;;39.13;19.10;;;5.80;99.90;;;;;;5035227;28;20018;-70
2022/11/24 02:35:00;;;;;;;39.03;20.58;;;5.80;99.90;;;;;;5020096;28;20029;-70
2022/11/24 02:37:26;;;;;;;50.53;20.73;;;5.80;99.90;;;;;;5015041;28;20026;-70
2022/11/24 02:39:51;;;;;;;57.85;23.13;;;5.90;99.90;;;;;;5015866;28;20038;-70
2022/11/24 02:42:17;;;;;;;46.08;21.77;;;5.80;99.90;;;;;;5027035;28;20055;-70
2022/11/24 02:44:47;;;;;;;41.53;21.38;;;5.90;99.90;;;;;;5035131;28;20025;-70
2022/11/24 02:47:13;;;;;;;53.55;22.80;;;5.90;99.90;;;;;;5023904;28;20034;-70
2022/11/24 02:49:39;;;;;;;47.45;22.08;;;5.90;99.90;;;;;;5014753;28;20075;-70
2022/11/24 02:52:05;;;;;;;43.22;21.17;;;5.90;99.90;;;;;;5009638;28;20030;-70
2022/11/24 02:54:31;;;;;;;49.95;23.10;;;5.90;99.90;;;;;;4995697;28;20425;-70
2022/11/24 02:56:57;;;;;;;41.10;23.42;;;5.90;99.90;;;;;;4996416;28;20142;-70
2022/11/24 02:59:22;;;;;;;48.80;23.98;;;6.00;99.90;;;;;;5013975;28;20396;-70
2022/11/24 03:01:48;;;;;;;45.03;24.83;;;6.00;99.90;;;;;;5034602;28;20380;-70
2022/11/24 03:04:14;;;;;;;51.78;24.48;;;6.00;99.90;;;;;;5034731;28;20130;-70
2022/11/24 03:06:39;;;;;;;57.55;24.95;;;6.00;99.90;;;;;;5034517;28;20030;-70
2022/11/24 03:09:05;;;;;;;47.05;22.23;;;5.90;99.90;;;;;;5034160;28;20091;-70
2022/11/24 03:11:31;;;;;;;41.22;23.20;;;6.00;99.90;;;;;;5034577;28;20037;-71
2022/11/24 03:13:56;;;;;;;72.72;24.98;;;5.90;99.90;;;;;;5026658;28;20042;-70
2022/11/24 03:16:22;;;;;;;43.60;23.08;;;5.90;99.90;;;;;;5014858;28;20535;-71
2022/11/24 03:18:50;;;;;;;61.17;24.85;;;5.90;99.90;;;;;;5013964;28;20497;-69
2022/11/24 03:21:15;;;;;;;51.08;22.20;;;5.90;99.90;;;;;;4995064;28;20070;-70
2022/11/24 03:23:41;;;;;;;44.20;23.02;;;5.90;99.90;;;;;;4994954;28;20042;-70
2022/11/24 03:26:15;;;;;;;56.15;24.13;;;5.90;99.90;;;;;;4995081;28;20084;-70
2022/11/24 03:28:41;;;;;;;55.22;26.55;;;5.90;99.90;;;;;;4994807;28;20030;-70
2022/11/24 03:31:08;;;;;;;54.10;25.45;;;5.90;99.90;;;;;;5004384;28;20503;-70
2022/11/24 03:33:34;;;;;;;48.30;25.10;;;6.00;99.90;;;;;;5014724;28;20033;-70
2022/11/24 03:36:00;;;;;;;60.03;26.67;;;6.00;99.90;;;;;;4996745;28;20026;-70
2022/11/24 03:38:25;;;;;;;55.90;24.30;;;6.10;99.90;;;;;;5014529;28;20026;-70
2022/11/24 03:40:51;;;;;;;51.78;24.40;;;6.00;99.90;;;;;;5031495;28;20104;-70
2022/11/24 03:43:16;;;;;;;46.97;23.10;;;6.00;99.90;;;;;;5033819;28;20018;-70
2022/11/24 03:45:46;;;;;;;55.55;25.20;;;6.00;99.90;;;;;;5019677;28;20101;-70
2022/11/24 03:48:13;;;;;;;52.00;25.15;;;6.00;99.90;;;;;;5014290;28;20018;-70
2022/11/24 03:50:38;;;;;;;53.55;25.33;;;5.90;99.90;;;;;;5014292;28;20097;-70
2022/11/24 03:53:04;;;;;;;49.40;25.77;;;6.00;99.90;;;;;;4996208;28;20057;-69
2022/11/24 03:55:29;;;;;;;55.80;26.75;;;6.00;99.90;;;;;;5012627;28;20849;-70
2022/11/24 03:57:55;;;;;;;50.70;26.67;;;5.90;99.90;;;;;;4994855;28;20068;-70
2022/11/24 04:00:20;;;;;;;57.55;26.90;;;6.00;99.90;;;;;;4994647;28;20113;-70
2022/11/24 04:02:47;;;;;;;56.00;25.83;;;6.00;99.90;;;;;;4977028;28;20022;-70
2022/11/24 04:05:12;;;;;;;51.25;26.95;;;6.00;99.90;;;;;;4977003;28;20029;-70
2022/11/24 04:07:38;;;;;;;62.45;28.02;;;6.00;99.90;;;;;;5009284;28;20026;-70
2022/11/24 04:10:04;;;;;;;67.03;28.95;;;6.00;99.90;;;;;;5014089;28;20053;-70
2022/11/24 04:12:45;;;;;;;58.83;27.13;;;6.00;99.90;;;;;;5013618;28;20044;-70
2022/11/24 04:15:20;;;;;;;53.38;27.40;;;6.00;99.90;;;;;;5013887;28;20022;-70
2022/11/24 04:17:47;;;;;;;52.40;27.20;;;6.00;99.90;;;;;;5013473;28;20084;-70
2022/11/24 04:20:14;;;;;;;55.72;27.42;;;6.00;99.90;;;;;;5016275;28;20064;-70
2022/11/24 04:22:40;;;;;;;56.58;28.88;;;6.00;99.90;;;;;;5018246;28;20030;-70
2022/11/24 04:25:07;;;;;;;52.10;27.52;;;6.00;99.90;;;;;;5017935;28;20365;-70
2022/11/24 04:27:34;;;;;;;48.85;29.52;;;6.00;99.90;;;;;;5017059;28;20497;-70
2022/11/24 04:29:59;;;;;;;65.07;29.27;;;6.00;99.90;;;;;;5037660;28;20030;-70
2022/11/24 04:32:25;;;;;;;56.78;29.38;;;6.00;99.90;;;;;;5036912;28;20033;-70
2022/11/24 04:34:50;;;;;;;58.88;27.95;;;6.10;99.90;;;;;;5037377;28;20037;-70
2022/11/24 04:37:16;;;;;;;55.97;27.90;;;6.00;99.90;;;;;;5028553;28;20396;-70
2022/11/24 04:39:41;;;;;;;54.42;31.67;;;6.10;99.90;;;;;;5017863;28;20121;-70
2022/11/24 04:42:07;;;;;;;57.03;27.92;;;6.10;99.90;;;;;;5017491;28;20481;-70
2022/11/24 04:44:32;;;;;;;55.70;26.60;;;6.10;99.90;;;;;;5017178;28;20030;-70
2022/11/24 04:46:58;;;;;;;53.40;28.88;;;6.10;99.90;;;;;;5017691;28;20088;-70
2022/11/24 04:49:23;;;;;;;63.78;29.85;;;6.00;99.90;;;;;;5017619;28;20416;-70
2022/11/24 04:51:49;;;;;;;60.55;29.00;;;6.10;99.90;;;;;;5019679;28;20018;-70
2022/11/24 04:54:15;;;;;;;64.05;29.08;;;6.10;99.90;;;;;;5037185;28;20481;-70
2022/11/24 04:56:42;;;;;;;66.45;32.10;;;6.10;99.90;;;;;;5037284;28;20032;-70
2022/11/24 04:59:14;;;;;;;65.00;28.95;;;6.10;99.90;;;;;;5036502;28;20025;-70
2022/11/24 05:01:41;;;;;;;55.83;29.58;;;6.10;99.90;;;;;;5037043;28;20079;-70
2022/11/24 05:04:10;;;;;;;66.55;31.17;;;6.10;99.90;;;;;;5037086;28;20477;-70
2022/11/24 05:06:36;;;;;;;59.58;30.85;;;6.10;99.90;;;;;;5037380;28;20025;-70
2022/11/24 05:09:01;;;;;;;68.53;32.63;;;6.10;99.90;;;;;;5036790;28;20092;-70
2022/11/24 05:11:27;;;;;;;67.65;32.72;;;6.10;99.90;;;;;;5054116;22;20563;-70
2022/11/24 05:13:52;;;;;;;61.90;29.05;;;6.20;99.90;;;;;;5016324;28;20021;-70
2022/11/24 05:16:18;;;;;;;62.25;34.63;;;6.20;99.90;;;;;;5017437;28;20080;-70
2022/11/24 05:18:44;;;;;;;65.63;32.03;;;6.20;99.90;;;;;;5016891;28;20029;-70
2022/11/24 05:21:09;;;;;;;68.05;31.75;;;6.20;99.90;;;;;;5016691;28;20029;-70
2022/11/24 05:23:35;;;;;;;79.07;33.78;;;6.20;99.90;;;;;;5016433;28;20087;-70
2022/11/24 05:26:01;;;;;;;75.22;36.20;;;6.20;99.90;;;;;;5016748;28;20030;-70
2022/11/24 05:28:27;;;;;;;69.97;33.08;;;6.20;99.90;;;;;;5017134;28;20026;-70
2022/11/24 05:30:53;;;;;;;73.50;32.28;;;6.20;99.90;;;;;;5016738;28;20030;-70
2022/11/24 05:33:21;;;;;;;80.80;35.50;;;6.30;99.90;;;;;;5017056;28;20088;-70
2022/11/24 05:35:48;;;;;;;76.63;34.22;;;6.30;99.90;;;;;;5016112;28;20056;-70
2022/11/24 05:38:14;;;;;;;70.35;32.03;;;6.30;99.90;;;;;;5016953;28;20397;-70
2022/11/24 05:40:41;;;;;;;59.70;31.23;;;6.30;99.90;;;;;;5016601;28;20036;-70
2022/11/24 05:43:14;;;;;;;58.25;29.67;;;6.30;99.90;;;;;;5016514;28;20054;-70
2022/11/24 05:45:40;;;;;;;79.80;33.25;;;6.30;99.90;;;;;;5016723;28;20030;-70
2022/11/24 05:48:08;;;;;;;76.45;33.70;;;6.30;99.90;;;;;;5014606;28;20379;-70
2022/11/24 05:50:35;;;;;;;83.70;33.08;;;6.30;99.90;;;;;;5016521;28;20029;-70
2022/11/24 05:53:02;;;;;;;94.72;34.35;;;6.40;99.90;;;;;;5016294;28;20029;-70
2022/11/24 05:55:28;;;;;;;88.05;35.28;;;6.30;99.90;;;;;;5016285;28;20096;-70
2022/11/24 05:57:59;;;;;;;88.18;34.50;;;6.40;99.90;;;;;;5014916;28;20057;-70
2022/11/24 06:00:25;;;;;;;82.35;35.33;;;6.40;99.90;;;;;;5015974;28;20037;-69
2022/11/24 06:02:50;;;;;;;81.55;35.92;;;6.40;99.90;;;;;;5016143;28;20026;-70
2022/11/24 06:05:16;;;;;;;91.78;36.63;;;6.40;99.90;;;;;;5016059;28;20548;-70
2022/11/24 06:07:42;;;;;;;88.90;37.05;;;6.40;99.90;;;;;;5016829;28;20072;-70
2022/11/24 06:10:08;;;;;;;87.20;34.72;;;6.40;99.90;;;;;;5016660;28;20033;-70
2022/11/24 06:12:34;;;;;;;100.10;36.53;;;6.40;99.90;;;;;;5018763;28;20038;-70
2022/11/24 06:15:00;;;;;;;85.63;35.45;;;6.40;99.90;;;;;;5017952;28;20370;-70
2022/11/24 06:17:25;;;;;;;96.53;37.90;;;6.40;99.90;;;;;;5017953;28;20106;-70
2022/11/24 06:19:51;;;;;;;85.13;35.90;;;6.40;99.90;;;;;;5015756;28;20030;-70
2022/11/24 06:22:18;;;;;;;82.95;35.20;;;6.40;99.90;;;;;;5015193;28;20061;-70
2022/11/24 06:24:45;;;;;;;79.35;32.63;;;6.40;99.90;;;;;;5015902;28;20026;-70
2022/11/24 06:27:11;;;;;;;93.40;38.13;;;6.40;99.90;;;;;;5015926;28;20021;-70
2022/11/24 06:29:37;;;;;;;78.40;37.50;;;6.40;99.90;;;;;;5015180;28;20492;-70
2022/11/24 06:32:03;;;;;;;96.47;35.50;;;6.40;99.90;;;;;;5015371;28;20096;-70
2022/11/24 06:34:28;;;;;;;95.13;34.60;;;6.50;99.90;;;;;;5015668;28;20565;-70
2022/11/24 06:36:54;;;;;;;72.07;33.20;;;6.40;99.90;;;;;;5013965;28;20029;-70
2022/11/24 06:39:19;;;;;;;92.57;35.35;;;6.40;99.90;;;;;;5015111;28;20048;-70
2022/11/24 06:41:45;;;;;;;93.38;34.50;;;6.40;99.90;;;;;;5014812;28;20022;-70
2022/11/24 06:44:10;;;;;;;93.55;35.22;;;6.40;99.90;;;;;;5015380;28;20053;-70
2022/11/24 06:46:36;;;;;;;87.50;35.55;;;6.40;99.90;;;;;;5015246;28;20026;-70
2022/11/24 06:49:01;;;;;;;87.60;33.55;;;6.40;99.90;;;;;;5015002;28;20509;-70
2022/11/24 06:51:27;;;;;;;94.15;36.15;;;6.40;99.90;;;;;;5013749;28;20054;-70
2022/11/24 06:53:53;;;;;;;89.13;35.10;;;6.50;99.90;;;;;;5015435;28;20424;-70
2022/11/24 06:56:19;;;;;;;101.90;36.47;;;6.50;99.90;;;;;;5014987;28;20030;-70
2022/11/24 06:58:47;;;;;;;89.15;34.85;;;6.50;99.90;;;;;;5015246;28;20156;-70
2022/11/24 07:01:18;;;;;;;106.55;36.63;;;6.50;99.90;;;;;;5014303;28;20026;-70
2022/11/24 07:03:44;;;;;;;89.57;35.17;;;6.50;99.90;;;;;;5014853;28;20064;-70
2022/11/24 07:06:10;;;;;;;121.53;38.33;;;6.50;99.90;;;;;;5014814;28;20134;-70
2022/11/24 07:08:35;;;;;;;89.93;37.63;;;6.50;99.90;;;;;;5014405;28;20029;-70
2022/11/24 07:11:05;;;;;;;97.60;36.63;;;6.50;99.90;;;;;;5014867;28;20034;-70
2022/11/24 07:13:32;;;;;;;91.50;35.92;;;6.50;99.90;;;;;;5015031;28;20490;-71
2022/11/24 07:15:58;;;;;;;91.82;35.03;;;6.50;99.90;;;;;;5015246;28;20032;-71
2022/11/24 07:18:23;;;;;;;98.60;36.00;;;6.50;99.90;;;;;;5014495;28;20018;-70
2022/11/24 07:20:49;;;;;;;94.03;35.63;;;6.60;99.90;;;;;;5014749;28;20022;-71
2022/11/24 07:23:14;;;;;;;89.65;34.95;;;6.60;99.90;;;;;;5014695;28;20030;-71
2022/11/24 07:25:39;;;;;;;93.45;36.58;;;6.70;99.90;;;;;;5014556;28;20033;-72
2022/11/24 07:28:05;;;;;;;112.88;35.38;;;6.60;99.90;;;;;;5013938;28;20108;-71
2022/11/24 07:30:31;;;;;;;94.85;36.70;;;6.60;99.90;;;;;;5014456;28;20025;-71
2022/11/24 07:33:00;;;;;;;103.40;33.85;;;6.60;99.90;;;;;;5014425;28;20022;-71
2022/11/24 07:35:27;;;;;;;94.35;36.80;;;6.70;99.90;;;;;;5014346;28;20505;-71
2022/11/24 07:37:55;;;;;;;101.80;36.40;;;6.70;99.90;;;;;;5013809;28;20061;-71
2022/11/24 07:40:20;;;;;;;115.13;36.35;;;6.70;99.90;;;;;;5014399;28;20030;-71
2022/11/24 07:42:46;;;;;;;82.13;34.67;;;6.70;99.90;;;;;;5014331;28;20381;-71
2022/11/24 07:45:11;;;;;;;90.63;36.20;;;6.70;99.90;;;;;;5014223;28;20038;-71
2022/11/24 07:47:38;;;;;;;112.22;38.22;;;6.70;99.90;;;;;;5014052;28;20021;-71
2022/11/24 07:50:04;;;;;;;93.90;34.92;;;6.70;99.90;;;;;;5014345;28;20030;-71
2022/11/24 07:52:30;;;;;;;81.28;33.80;;;6.70;99.90;;;;;;5014350;28;20508;-71
2022/11/24 07:54:55;;;;;;;80.28;33.53;;;6.70;99.90;;;;;;5013609;28;20034;-71
2022/11/24 07:57:22;;;;;;;75.95;32.05;;;6.70;99.90;;;;;;5013794;28;20034;-70
2022/11/24 07:59:47;;;;;;;77.32;32.67;;;6.70;99.90;;;;;;5013887;28;20057;-71
2022/11/24 08:02:13;;;;;;;78.82;33.97;;;6.70;99.90;;;;;;5013848;28;20068;-70
2022/11/24 08:04:38;;;;;;;77.68;30.88;;;6.70;99.90;;;;;;5013952;28;20014;-71
2022/11/24 08:07:04;;;;;;;77.32;31.73;;;6.70;99.90;;;;;;5013406;28;20034;-71
2022/11/24 08:09:29;;;;;;;72.07;30.88;;;6.70;99.90;;;;;;5013827;28;20026;-70
2022/11/24 08:11:55;;;;;;;79.65;30.98;;;6.80;99.90;;;;;;5013686;28;20406;-71
2022/11/24 08:14:20;;;;;;;82.15;32.25;;;6.80;99.90;;;;;;5013813;28;20117;-71
2022/11/24 08:16:46;;;;;;;77.78;31.73;;;6.80;99.90;;;;;;5013869;28;20061;-70
2022/11/24 08:19:11;;;;;;;77.82;31.48;;;6.80;99.90;;;;;;5014073;28;20018;-70
2022/11/24 08:21:37;;;;;;;90.93;31.05;;;6.90;99.90;;;;;;5013076;28;20489;-71
2022/11/24 08:24:03;;;;;;;76.40;31.38;;;6.90;99.90;;;;;;5013851;28;20026;-70
2022/11/24 08:26:28;;;;;;;64.47;30.42;;;6.90;99.90;;;;;;5014350;28;20060;-71
2022/11/24 08:28:56;;;;;;;76.95;32.42;;;6.90;99.90;;;;;;5014130;28;20026;-71
2022/11/24 08:31:23;;;;;;;60.70;30.60;;;6.90;99.90;;;;;;5012411;28;20030;-70
2022/11/24 08:33:49;;;;;;;61.72;31.50;;;7.00;99.90;;;;;;5012990;28;20026;-71
2022/11/24 08:36:17;;;;;;;62.70;29.88;;;7.00;99.90;;;;;;5013753;28;20026;-70
2022/11/24 08:38:47;;;;;;;63.33;30.10;;;7.00;99.90;;;;;;5013582;28;20040;-71
2022/11/24 08:41:15;;;;;;;88.28;29.60;;;7.00;99.90;;;;;;5013517;28;20089;-70
2022/11/24 08:43:41;;;;;;;75.43;30.20;;;7.00;99.90;;;;;;5013120;28;20026;-71
2022/11/24 08:46:12;;;;;;;69.03;28.77;;;7.00;99.90;;;;;;5013480;28;20024;-71
2022/11/24 08:48:39;;;;;;;75.75;30.48;;;6.90;99.90;;;;;;5013954;28;20028;-71
2022/11/24 08:51:07;;;;;;;69.00;28.10;;;7.00;99.90;;;;;;5012827;28;20046;-71
2022/11/24 08:53:33;;;;;;;94.38;30.27;;;7.00;99.90;;;;;;5013790;28;20030;-71
2022/11/24 08:55:59;;;;;;;77.38;28.83;;;7.00;99.90;;;;;;5013891;28;20460;-71
2022/11/24 08:58:25;;;;;;;63.17;29.25;;;7.00;99.90;;;;;;5013818;28;20109;-71
2022/11/24 09:00:51;;;;;;;75.47;30.25;;;7.00;99.90;;;;;;5013437;28;20128;-71
2022/11/24 09:03:16;;;;;;;65.15;28.90;;;7.00;99.90;;;;;;5012965;28;20030;-71
2022/11/24 09:05:42;;;;;;;68.75;28.20;;;7.10;99.90;;;;;;5015090;28;20033;-72
2022/11/24 09:08:07;;;;;;;80.22;29.33;;;7.10;99.90;;;;;;5017229;28;20026;-72
2022/11/24 09:10:34;;;;;;;62.13;26.85;;;7.10;99.90;;;;;;5017174;28;20041;-71
2022/11/24 09:12:59;;;;;;;60.63;25.65;;;7.20;99.90;;;;;;5015600;28;20091;-72
2022/11/24 09:15:25;;;;;;;52.38;24.90;;;7.20;99.90;;;;;;5016565;28;20385;-72
2022/11/24 09:17:50;;;;;;;70.18;26.90;;;7.30;99.90;;;;;;5017312;28;20034;-72
2022/11/24 09:20:16;;;;;;;54.28;25.85;;;7.30;99.90;;;;;;5017043;28;20485;-71
2022/11/24 09:22:42;;;;;;;62.80;26.13;;;7.40;99.90;;;;;;5016725;28;20026;-71
2022/11/24 09:25:08;;;;;;;58.75;25.10;;;7.40;99.90;;;;;;5017012;28;20091;-72
2022/11/24 09:27:34;;;;;;;57.97;24.77;;;7.40;99.90;;;;;;5016395;28;20381;-71
2022/11/24 09:29:59;;;;;;;64.93;27.08;;;7.40;99.90;;;;;;5011467;28;20059;-71
2022/11/24 09:32:25;;;;;;;64.80;25.58;;;7.40;99.90;;;;;;5007511;28;20034;-71
2022/11/24 09:34:50;;;;;;;69.82;28.60;;;7.40;99.90;;;;;;4996551;28;20486;-72
2022/11/24 09:37:17;;;;;;;81.95;27.48;;;7.40;99.90;;;;;;5005524;28;20052;-72
2022/11/24 09:39:42;;;;;;;65.82;24.85;;;7.40;99.90;;;;;;5015957;28;20072;-71
2022/11/24 09:42:38;;;;;;;77.32;25.65;;;7.40;99.90;;;;;;5015402;28;20026;-72
2022/11/24 09:45:26;;;;;;;57.97;24.25;;;7.30;99.90;;;;;;5002455;28;20030;-71
2022/11/24 09:48:23;;;;;;;79.30;27.23;;;7.40;99.90;;;;;;4995072;28;20018;-72
2022/11/24 09:50:51;;;;;;;69.65;23.08;;;7.30;99.90;;;;;;4973864;28;20042;-71
2022/11/24 09:53:36;;;;;;;63.42;25.35;;;7.40;99.90;;;;;;5013696;28;20076;-72
2022/11/24 09:56:21;;;;;;;62.63;24.50;;;7.30;99.90;;;;;;5015192;28;20036;-72
2022/11/24 09:58:53;;;;;;;78.82;24.05;;;7.40;99.90;;;;;;5015181;28;20026;-71
2022/11/24 10:01:28;;;;;;;67.95;24.33;;;7.40;99.90;;;;;;5003720;28;20057;-72
2022/11/24 10:03:54;;;;;;;60.67;23.10;;;7.40;99.90;;;;;;5014921;28;20034;-71
2022/11/24 10:06:26;;;;;;;72.72;22.63;;;7.40;99.90;;;;;;5014818;28;20076;-71
2022/11/24 10:08:57;;;;;;;72.22;24.48;;;7.40;99.90;;;;;;4999726;28;20478;-71
2022/11/24 10:12:07;;;;;;;59.45;23.85;;;7.40;99.90;;;;;;4995045;28;20514;-71
2022/11/24 10:14:57;;;;;;;49.00;21.52;;;7.40;99.90;;;;;;4968159;28;20067;-72
2022/11/24 10:17:26;;;;;;;51.75;20.85;;;7.50;99.90;;;;;;4995069;28;20022;-71
2022/11/24 10:20:01;;;;;;;55.90;23.50;;;7.50;99.90;;;;;;4995657;28;20137;-71
2022/11/24 10:22:51;;;;;;;55.85;21.38;;;7.60;99.90;;;;;;4995263;28;20371;-71
2022/11/24 10:25:41;;;;;;;45.70;21.48;;;7.60;99.90;;;;;;4994369;28;20077;-71
2022/11/24 10:28:15;;;;;;;50.22;19.75;;;7.70;99.90;;;;;;4996163;28;20026;-70
2022/11/24 10:30:41;;;;;;;;;;;7.70;99.90;;;;;;5015696;28;20030;-71
2022/11/24 10:33:12;;;;;;;53.78;20.00;;;7.60;99.90;;;;;;5014592;28;19905;-71
2022/11/24 10:35:47;;;;;;;50.65;18.98;;;7.70;99.90;;;;;;5014826;28;20041;-71
2022/11/24 10:38:31;;;;;;;57.63;21.30;;;7.70;99.90;;;;;;5015207;28;20075;-71
2022/11/24 10:41:03;;;;;;;57.95;21.65;;;7.80;99.90;;;;;;5014323;28;20025;-71
2022/11/24 10:43:29;;;;;;;55.72;20.52;;;7.70;99.90;;;;;;5014875;28;20394;-72
2022/11/24 10:46:04;;;;;;;69.80;19.75;;;7.70;99.90;;;;;;5014767;28;20022;-71
2022/11/24 10:48:39;;;;;;;52.78;19.38;;;7.80;99.90;;;;;;5014792;28;20073;-71
2022/11/24 10:51:20;;;;;;;62.83;18.70;;;7.90;99.90;;;;;;5014591;28;20112;-71
2022/11/24 10:53:47;;;;;;;56.13;18.50;;;7.90;99.90;;;;;;5014022;28;20042;-71
2022/11/24 10:56:12;;;;;;;50.53;18.02;;;7.90;99.90;;;;;;5014449;28;20049;-71
2022/11/24 10:58:38;;;;;;;48.97;17.60;;;7.90;99.90;;;;;;5014556;28;20127;-71
2022/11/24 11:01:13;;;;;;;53.53;17.73;;;7.80;99.90;;;;;;5014042;28;20379;-71
2022/11/24 11:03:51;;;;;;;53.15;18.40;;;7.90;99.90;;;;;;5014480;28;20438;-71
2022/11/24 11:06:25;;;;;;;60.17;17.25;;;7.90;99.90;;;;;;5013867;28;20608;-71
2022/11/24 11:09:06;;;;;;;66.50;19.20;;;7.90;99.90;;;;;;5014642;28;20030;-72
2022/11/24 11:11:33;;;;;;;41.92;15.45;;;7.90;99.90;;;;;;5029235;23;20713;-72
2022/11/24 11:14:04;;;;;;;49.35;16.40;;;7.90;99.90;;;;;;5014641;28;20030;-72
2022/11/24 11:16:38;;;;;;;45.70;15.50;;;7.90;99.90;;;;;;5013812;28;20493;-72
2022/11/24 11:19:27;;;;;;;59.78;16.60;;;7.90;99.90;;;;;;5014679;28;20033;-72
2022/11/24 11:22:00;;;;;;;54.85;16.90;;;7.90;99.90;;;;;;5014363;28;20105;-72
2022/11/24 11:24:27;;;;;;;64.77;16.80;;;7.90;99.90;;;;;;5014164;28;20026;-72
2022/11/24 11:27:03;;;;;;;42.67;15.45;;;7.80;99.90;;;;;;5013673;28;20018;-72
2022/11/24 11:29:29;;;;;;;41.13;15.90;;;7.80;99.90;;;;;;5014219;28;20072;-72
2022/11/24 11:32:15;;;;;;;46.08;15.60;;;7.80;99.90;;;;;;5013971;28;20033;-72
2022/11/24 11:34:41;;;;;;;49.10;15.65;;;7.80;99.90;;;;;;5013992;28;20083;-72
2022/11/24 11:37:11;;;;;;;60.72;15.95;;;7.90;99.90;;;;;;5014457;28;20021;-72
2022/11/24 11:39:46;;;;;;;36.17;15.50;;;7.90;99.90;;;;;;5013572;28;20022;-72
2022/11/24 11:42:29;;;;;;;49.83;15.90;;;7.90;99.90;;;;;;5013804;28;20034;-72
2022/11/24 11:45:47;;;;;;;40.47;14.98;;;7.90;99.90;;;;;;5014139;28;20378;-72
2022/11/24 11:48:25;;;;;;;47.03;15.48;;;7.90;99.90;;;;;;4980674;28;20145;-72
2022/11/24 11:51:01;;;;;;;50.15;14.65;;;7.90;99.90;;;;;;5013421;28;20080;-72
2022/11/24 11:53:45;;;;;;;42.05;13.43;;;7.90;99.90;;;;;;5013734;28;20030;-72
2022/11/24 11:56:29;;;;;;;41.20;13.82;;;7.90;99.90;;;;;;5013991;28;20040;-72
2022/11/24 11:59:27;;;;;;;64.05;14.38;;;7.90;99.90;;;;;;5013800;28;20489;-72
2022/11/24 12:02:17;;;;;;;44.08;14.55;;;8.00;99.90;;;;;;5013747;28;20508;-72
2022/11/24 12:04:57;;;;;;;49.28;15.40;;;8.00;99.90;;;;;;5011852;28;20040;-72
2022/11/24 12:07:51;;;;;;;39.13;14.27;;;8.00;99.90;;;;;;5013863;28;20109;-72
2022/11/24 12:10:17;;;;;;;49.72;14.75;;;8.00;99.90;;;;;;5014111;28;20393;-72
2022/11/24 12:12:54;;;;;;;49.58;15.57;;;8.00;99.90;;;;;;5013270;28;20117;-72
2022/11/24 12:15:30;;;;;;;56.92;15.70;;;8.00;99.90;;;;;;5013716;28;20088;-72
2022/11/24 12:18:13;;;;;;;46.58;16.85;;;7.90;99.90;;;;;;5012816;28;20041;-72
2022/11/24 12:21:16;;;;;;;44.30;14.98;;;7.90;99.90;;;;;;5012177;28;20080;-72
2022/11/24 12:24:06;;;;;;;50.40;16.15;;;7.90;99.90;;;;;;5013382;28;20041;-72
2022/11/24 12:27:12;;;;;;;49.83;13.38;;;7.90;99.90;;;;;;5012857;28;20480;-72
2022/11/24 12:29:53;;;;;;;47.22;14.68;;;7.90;99.90;;;;;;5013903;28;20385;-72
2022/11/24 12:32:31;;;;;;;55.72;13.48;;;8.00;99.90;;;;;;5013426;28;20018;-72
2022/11/24 12:35:16;;;;;;;42.95;13.50;;;8.00;99.90;;;;;;5013614;28;20426;-72
2022/11/24 12:38:19;;;;;;;40.65;15.38;;;8.00;99.90;;;;;;5013519;28;20119;-71
2022/11/24 12:41:21;;;;;;;43.80;13.18;;;8.00;99.90;;;;;;5014881;28;20033;-72
2022/11/24 12:43:58;;;;;;;45.88;12.90;;;8.00;99.90;;;;;;5017140;28;20022;-72
2022/11/24 12:46:49;;;;;;;48.25;12.82;;;8.00;99.90;;;;;;5017414;28;20110;-72
2022/11/24 12:49:53;;;;;;;43.30;10.90;;;8.00;99.90;;;;;;5015829;28;20057;-72
2022/11/24 12:52:25;;;;;;;38.38;12.68;;;8.00;99.90;;;;;;4983333;28;20045;-72